sensor_id;sensor_type;location;lat;lon;timestamp;P1;durP1;ratioP1;P2;durP2;ratioP2
23990;SDS011;12205;50.600;4.608;2022-12-29T00:01:48;2.00;;;0.50;;
23990;SDS011;12205;50.600;4.608;2022-12-29T00:04:17;1.95;;;0.63;;
23990;SDS011;12205;50.600;4.608;2022-12-29T00:06:44;2.55;;;0.60;;
23990;SDS011;12205;50.600;4.608;2022-12-29T00:09:11;1.40;;;0.40;;
23990;SDS011;12205;50.600;4.608;2022-12-29T00:11:40;1.73;;;0.50;;
23990;SDS011;12205;50.600;4.608;2022-12-29T00:14:08;1.75;;;0.70;;
23990;SDS011;12205;50.600;4.608;2022-12-29T00:16:55;1.27;;;0.52;;
23990;SDS011;12205;50.600;4.608;2022-12-29T00:19:22;1.08;;;0.45;;
23990;SDS011;12205;50.600;4.608;2022-12-29T00:22:08;2.85;;;0.82;;
23990;SDS011;12205;50.600;4.608;2022-12-29T00:24:54;1.58;;;0.57;;
23990;SDS011;12205;50.600;4.608;2022-12-29T00:27:40;3.10;;;0.80;;
23990;SDS011;12205;50.600;4.608;2022-12-29T00:30:25;1.55;;;0.50;;
23990;SDS011;12205;50.600;4.608;2022-12-29T00:33:10;3.88;;;0.68;;
23990;SDS011;12205;50.600;4.608;2022-12-29T00:35:57;2.67;;;0.50;;
23990;SDS011;12205;50.600;4.608;2022-12-29T00:38:31;3.17;;;0.80;;
23990;SDS011;12205;50.600;4.608;2022-12-29T00:41:20;3.72;;;0.80;;
23990;SDS011;12205;50.600;4.608;2022-12-29T00:44:06;2.30;;;0.70;;
23990;SDS011;12205;50.600;4.608;2022-12-29T00:46:37;1.45;;;0.40;;
23990;SDS011;12205;50.600;4.608;2022-12-29T00:49:06;1.10;;;0.32;;
23990;SDS011;12205;50.600;4.608;2022-12-29T00:51:54;2.05;;;0.50;;
23990;SDS011;12205;50.600;4.608;2022-12-29T00:54:22;1.27;;;0.52;;
23990;SDS011;12205;50.600;4.608;2022-12-29T00:56:50;4.25;;;0.50;;
23990;SDS011;12205;50.600;4.608;2022-12-29T00:59:20;2.00;;;0.57;;
23990;SDS011;12205;50.600;4.608;2022-12-29T01:01:49;2.63;;;0.60;;
23990;SDS011;12205;50.600;4.608;2022-12-29T01:04:18;2.80;;;0.70;;
23990;SDS011;12205;50.600;4.608;2022-12-29T01:06:47;1.83;;;0.60;;
23990;SDS011;12205;50.600;4.608;2022-12-29T01:09:15;2.55;;;0.70;;
23990;SDS011;12205;50.600;4.608;2022-12-29T01:12:02;2.35;;;0.40;;
23990;SDS011;12205;50.600;4.608;2022-12-29T01:14:33;3.33;;;0.80;;
23990;SDS011;12205;50.600;4.608;2022-12-29T01:17:02;2.45;;;0.90;;
23990;SDS011;12205;50.600;4.608;2022-12-29T01:19:29;4.15;;;0.63;;
23990;SDS011;12205;50.600;4.608;2022-12-29T01:21:57;3.50;;;0.60;;
23990;SDS011;12205;50.600;4.608;2022-12-29T01:24:24;4.32;;;0.60;;
23990;SDS011;12205;50.600;4.608;2022-12-29T01:26:51;3.00;;;0.57;;
23990;SDS011;12205;50.600;4.608;2022-12-29T01:29:19;2.05;;;0.50;;
23990;SDS011;12205;50.600;4.608;2022-12-29T01:31:48;4.53;;;0.80;;
23990;SDS011;12205;50.600;4.608;2022-12-29T01:34:15;3.28;;;0.52;;
23990;SDS011;12205;50.600;4.608;2022-12-29T01:36:43;1.52;;;0.40;;
23990;SDS011;12205;50.600;4.608;2022-12-29T01:39:11;4.65;;;0.90;;
23990;SDS011;12205;50.600;4.608;2022-12-29T01:41:38;4.93;;;0.70;;
23990;SDS011;12205;50.600;4.608;2022-12-29T01:47:29;2.78;;;0.60;;
23990;SDS011;12205;50.600;4.608;2022-12-29T01:50:04;3.17;;;1.10;;
23990;SDS011;12205;50.600;4.608;2022-12-29T01:52:36;2.50;;;0.80;;
23990;SDS011;12205;50.600;4.608;2022-12-29T01:55:11;2.30;;;0.50;;
23990;SDS011;12205;50.600;4.608;2022-12-29T01:57:44;5.80;;;1.60;;
23990;SDS011;12205;50.600;4.608;2022-12-29T02:00:17;1.23;;;0.40;;
23990;SDS011;12205;50.600;4.608;2022-12-29T02:02:47;3.65;;;0.63;;
23990;SDS011;12205;50.600;4.608;2022-12-29T02:05:20;4.00;;;0.73;;
23990;SDS011;12205;50.600;4.608;2022-12-29T02:07:55;0.93;;;0.40;;
23990;SDS011;12205;50.600;4.608;2022-12-29T02:10:24;1.65;;;0.60;;
23990;SDS011;12205;50.600;4.608;2022-12-29T02:12:56;2.95;;;0.60;;
23990;SDS011;12205;50.600;4.608;2022-12-29T02:15:25;2.00;;;0.50;;
23990;SDS011;12205;50.600;4.608;2022-12-29T02:18:06;0.85;;;0.43;;
23990;SDS011;12205;50.600;4.608;2022-12-29T02:20:55;0.88;;;0.40;;
23990;SDS011;12205;50.600;4.608;2022-12-29T02:24:08;0.90;;;0.38;;
23990;SDS011;12205;50.600;4.608;2022-12-29T02:27:24;1.00;;;0.40;;
23990;SDS011;12205;50.600;4.608;2022-12-29T02:30:35;1.83;;;0.52;;
23990;SDS011;12205;50.600;4.608;2022-12-29T02:33:18;2.03;;;0.40;;
23990;SDS011;12205;50.600;4.608;2022-12-29T02:35:57;6.82;;;0.85;;
23990;SDS011;12205;50.600;4.608;2022-12-29T02:38:40;1.08;;;0.30;;
23990;SDS011;12205;50.600;4.608;2022-12-29T02:41:25;1.23;;;0.43;;
23990;SDS011;12205;50.600;4.608;2022-12-29T02:43:59;2.22;;;0.63;;
23990;SDS011;12205;50.600;4.608;2022-12-29T02:46:36;1.95;;;0.43;;
23990;SDS011;12205;50.600;4.608;2022-12-29T02:49:11;1.63;;;0.45;;
23990;SDS011;12205;50.600;4.608;2022-12-29T02:51:47;2.60;;;0.50;;
23990;SDS011;12205;50.600;4.608;2022-12-29T02:54:22;2.83;;;0.63;;
23990;SDS011;12205;50.600;4.608;2022-12-29T02:57:10;1.58;;;0.50;;
23990;SDS011;12205;50.600;4.608;2022-12-29T02:59:41;2.30;;;0.45;;
23990;SDS011;12205;50.600;4.608;2022-12-29T03:02:17;2.95;;;0.50;;
23990;SDS011;12205;50.600;4.608;2022-12-29T03:05:11;2.85;;;0.57;;
23990;SDS011;12205;50.600;4.608;2022-12-29T03:08:04;3.85;;;0.40;;
23990;SDS011;12205;50.600;4.608;2022-12-29T03:10:44;1.85;;;0.40;;
23990;SDS011;12205;50.600;4.608;2022-12-29T03:13:24;2.78;;;0.60;;
23990;SDS011;12205;50.600;4.608;2022-12-29T03:16:19;1.27;;;0.30;;
23990;SDS011;12205;50.600;4.608;2022-12-29T03:18:54;1.85;;;0.40;;
23990;SDS011;12205;50.600;4.608;2022-12-29T03:21:30;3.55;;;0.50;;
23990;SDS011;12205;50.600;4.608;2022-12-29T03:24:21;1.33;;;0.43;;
23990;SDS011;12205;50.600;4.608;2022-12-29T03:26:56;1.23;;;0.30;;
23990;SDS011;12205;50.600;4.608;2022-12-29T03:29:32;3.65;;;0.55;;
23990;SDS011;12205;50.600;4.608;2022-12-29T03:32:05;11.30;;;1.52;;
23990;SDS011;12205;50.600;4.608;2022-12-29T03:34:39;3.45;;;0.70;;
23990;SDS011;12205;50.600;4.608;2022-12-29T03:37:08;2.17;;;0.40;;
23990;SDS011;12205;50.600;4.608;2022-12-29T03:39:41;3.88;;;0.52;;
23990;SDS011;12205;50.600;4.608;2022-12-29T03:42:11;3.15;;;0.57;;
23990;SDS011;12205;50.600;4.608;2022-12-29T03:44:43;7.95;;;0.68;;
23990;SDS011;12205;50.600;4.608;2022-12-29T03:47:13;3.13;;;0.57;;
23990;SDS011;12205;50.600;4.608;2022-12-29T03:49:44;3.05;;;0.47;;
23990;SDS011;12205;50.600;4.608;2022-12-29T03:52:12;1.55;;;0.43;;
23990;SDS011;12205;50.600;4.608;2022-12-29T03:54:42;4.35;;;0.45;;
23990;SDS011;12205;50.600;4.608;2022-12-29T03:57:11;4.80;;;0.50;;
23990;SDS011;12205;50.600;4.608;2022-12-29T04:00:05;2.50;;;0.40;;
23990;SDS011;12205;50.600;4.608;2022-12-29T04:02:40;5.50;;;0.75;;
23990;SDS011;12205;50.600;4.608;2022-12-29T04:05:14;4.93;;;0.75;;
23990;SDS011;12205;50.600;4.608;2022-12-29T04:07:41;3.33;;;0.85;;
23990;SDS011;12205;50.600;4.608;2022-12-29T04:10:08;5.60;;;0.82;;
23990;SDS011;12205;50.600;4.608;2022-12-29T04:12:36;2.65;;;0.60;;
23990;SDS011;12205;50.600;4.608;2022-12-29T04:15:04;5.63;;;0.77;;
23990;SDS011;12205;50.600;4.608;2022-12-29T04:17:33;3.50;;;0.55;;
23990;SDS011;12205;50.600;4.608;2022-12-29T04:20:02;4.00;;;0.70;;
23990;SDS011;12205;50.600;4.608;2022-12-29T04:22:49;5.60;;;0.55;;
23990;SDS011;12205;50.600;4.608;2022-12-29T04:25:24;2.60;;;0.55;;
23990;SDS011;12205;50.600;4.608;2022-12-29T04:27:52;3.45;;;0.50;;
23990;SDS011;12205;50.600;4.608;2022-12-29T04:30:39;8.40;;;0.90;;
23990;SDS011;12205;50.600;4.608;2022-12-29T04:33:32;3.92;;;0.50;;
23990;SDS011;12205;50.600;4.608;2022-12-29T04:36:00;4.03;;;0.60;;
23990;SDS011;12205;50.600;4.608;2022-12-29T04:38:29;7.78;;;0.60;;
23990;SDS011;12205;50.600;4.608;2022-12-29T04:40:58;3.65;;;0.60;;
23990;SDS011;12205;50.600;4.608;2022-12-29T04:43:27;1.98;;;0.45;;
23990;SDS011;12205;50.600;4.608;2022-12-29T04:46:17;4.53;;;0.60;;
23990;SDS011;12205;50.600;4.608;2022-12-29T04:49:08;3.70;;;0.52;;
23990;SDS011;12205;50.600;4.608;2022-12-29T04:51:47;5.00;;;0.82;;
23990;SDS011;12205;50.600;4.608;2022-12-29T04:54:17;6.40;;;0.75;;
23990;SDS011;12205;50.600;4.608;2022-12-29T04:56:52;2.83;;;0.80;;
23990;SDS011;12205;50.600;4.608;2022-12-29T04:59:19;7.65;;;0.88;;
23990;SDS011;12205;50.600;4.608;2022-12-29T05:01:49;7.80;;;0.70;;
23990;SDS011;12205;50.600;4.608;2022-12-29T05:04:16;5.45;;;0.65;;
23990;SDS011;12205;50.600;4.608;2022-12-29T05:06:44;5.55;;;0.70;;
23990;SDS011;12205;50.600;4.608;2022-12-29T05:09:11;2.78;;;0.45;;
23990;SDS011;12205;50.600;4.608;2022-12-29T05:11:40;4.78;;;0.50;;
23990;SDS011;12205;50.600;4.608;2022-12-29T05:14:08;4.20;;;0.77;;
23990;SDS011;12205;50.600;4.608;2022-12-29T05:16:36;3.60;;;0.68;;
23990;SDS011;12205;50.600;4.608;2022-12-29T05:19:04;2.65;;;0.93;;
23990;SDS011;12205;50.600;4.608;2022-12-29T05:21:32;6.25;;;0.60;;
23990;SDS011;12205;50.600;4.608;2022-12-29T05:23:59;2.30;;;0.68;;
23990;SDS011;12205;50.600;4.608;2022-12-29T05:26:27;6.18;;;0.82;;
23990;SDS011;12205;50.600;4.608;2022-12-29T05:29:05;2.70;;;0.68;;
23990;SDS011;12205;50.600;4.608;2022-12-29T05:31:32;3.05;;;0.50;;
23990;SDS011;12205;50.600;4.608;2022-12-29T05:34:01;2.75;;;0.60;;
23990;SDS011;12205;50.600;4.608;2022-12-29T05:36:29;5.65;;;0.63;;
23990;SDS011;12205;50.600;4.608;2022-12-29T05:38:58;8.10;;;0.70;;
23990;SDS011;12205;50.600;4.608;2022-12-29T05:41:26;6.82;;;0.73;;
23990;SDS011;12205;50.600;4.608;2022-12-29T05:44:24;10.70;;;1.00;;
23990;SDS011;12205;50.600;4.608;2022-12-29T05:47:10;6.55;;;0.93;;
23990;SDS011;12205;50.600;4.608;2022-12-29T05:49:44;3.97;;;0.55;;
23990;SDS011;12205;50.600;4.608;2022-12-29T05:52:26;5.18;;;0.50;;
23990;SDS011;12205;50.600;4.608;2022-12-29T05:54:53;7.15;;;0.70;;
23990;SDS011;12205;50.600;4.608;2022-12-29T05:57:22;6.95;;;0.95;;
23990;SDS011;12205;50.600;4.608;2022-12-29T06:00:00;4.25;;;0.77;;
23990;SDS011;12205;50.600;4.608;2022-12-29T06:02:28;7.60;;;0.57;;
23990;SDS011;12205;50.600;4.608;2022-12-29T06:04:56;3.45;;;0.52;;
23990;SDS011;12205;50.600;4.608;2022-12-29T06:07:23;4.45;;;0.68;;
23990;SDS011;12205;50.600;4.608;2022-12-29T06:09:50;7.47;;;1.02;;
23990;SDS011;12205;50.600;4.608;2022-12-29T06:12:18;2.30;;;0.55;;
23990;SDS011;12205;50.600;4.608;2022-12-29T06:14:48;9.48;;;0.90;;
23990;SDS011;12205;50.600;4.608;2022-12-29T06:17:17;3.95;;;0.50;;
23990;SDS011;12205;50.600;4.608;2022-12-29T06:19:44;8.02;;;1.13;;
23990;SDS011;12205;50.600;4.608;2022-12-29T06:22:11;2.70;;;0.73;;
23990;SDS011;12205;50.600;4.608;2022-12-29T06:24:40;4.00;;;0.60;;
23990;SDS011;12205;50.600;4.608;2022-12-29T06:27:07;6.65;;;0.98;;
23990;SDS011;12205;50.600;4.608;2022-12-29T06:29:35;4.45;;;0.60;;
23990;SDS011;12205;50.600;4.608;2022-12-29T06:32:05;7.43;;;0.98;;
23990;SDS011;12205;50.600;4.608;2022-12-29T06:34:35;7.85;;;1.35;;
23990;SDS011;12205;50.600;4.608;2022-12-29T06:37:02;3.20;;;0.60;;
23990;SDS011;12205;50.600;4.608;2022-12-29T06:39:30;7.10;;;0.57;;
23990;SDS011;12205;50.600;4.608;2022-12-29T06:42:04;5.05;;;0.75;;
23990;SDS011;12205;50.600;4.608;2022-12-29T06:44:43;5.75;;;0.77;;
23990;SDS011;12205;50.600;4.608;2022-12-29T06:47:10;9.23;;;1.02;;
23990;SDS011;12205;50.600;4.608;2022-12-29T06:49:39;5.18;;;1.02;;
23990;SDS011;12205;50.600;4.608;2022-12-29T06:52:06;7.80;;;0.82;;
23990;SDS011;12205;50.600;4.608;2022-12-29T06:54:34;5.63;;;0.60;;
23990;SDS011;12205;50.600;4.608;2022-12-29T06:57:01;4.20;;;0.65;;
23990;SDS011;12205;50.600;4.608;2022-12-29T06:59:28;6.22;;;1.15;;
23990;SDS011;12205;50.600;4.608;2022-12-29T07:01:55;7.50;;;0.88;;
23990;SDS011;12205;50.600;4.608;2022-12-29T07:04:22;10.13;;;0.93;;
23990;SDS011;12205;50.600;4.608;2022-12-29T07:06:51;4.72;;;0.85;;
23990;SDS011;12205;50.600;4.608;2022-12-29T07:09:18;16.27;;;1.90;;
23990;SDS011;12205;50.600;4.608;2022-12-29T07:11:46;6.90;;;1.15;;
23990;SDS011;12205;50.600;4.608;2022-12-29T07:14:13;9.18;;;1.10;;
23990;SDS011;12205;50.600;4.608;2022-12-29T07:16:40;6.60;;;0.85;;
23990;SDS011;12205;50.600;4.608;2022-12-29T07:19:07;7.35;;;0.75;;
23990;SDS011;12205;50.600;4.608;2022-12-29T07:21:34;6.38;;;0.60;;
23990;SDS011;12205;50.600;4.608;2022-12-29T07:24:03;10.02;;;1.20;;
23990;SDS011;12205;50.600;4.608;2022-12-29T07:26:31;7.00;;;0.80;;
23990;SDS011;12205;50.600;4.608;2022-12-29T07:29:00;9.18;;;0.90;;
23990;SDS011;12205;50.600;4.608;2022-12-29T07:31:27;6.82;;;0.70;;
23990;SDS011;12205;50.600;4.608;2022-12-29T07:33:54;7.63;;;0.90;;
23990;SDS011;12205;50.600;4.608;2022-12-29T07:36:21;6.97;;;1.00;;
23990;SDS011;12205;50.600;4.608;2022-12-29T07:38:48;11.20;;;1.10;;
23990;SDS011;12205;50.600;4.608;2022-12-29T07:41:17;6.30;;;1.30;;
23990;SDS011;12205;50.600;4.608;2022-12-29T07:43:46;6.15;;;1.15;;
23990;SDS011;12205;50.600;4.608;2022-12-29T07:46:40;9.80;;;1.02;;
23990;SDS011;12205;50.600;4.608;2022-12-29T07:49:07;6.63;;;0.88;;
23990;SDS011;12205;50.600;4.608;2022-12-29T07:51:34;7.07;;;0.85;;
23990;SDS011;12205;50.600;4.608;2022-12-29T07:54:01;7.00;;;0.90;;
23990;SDS011;12205;50.600;4.608;2022-12-29T07:56:30;8.02;;;1.00;;
23990;SDS011;12205;50.600;4.608;2022-12-29T07:58:57;6.07;;;0.68;;
23990;SDS011;12205;50.600;4.608;2022-12-29T08:01:24;9.38;;;0.85;;
23990;SDS011;12205;50.600;4.608;2022-12-29T08:03:51;15.30;;;1.80;;
23990;SDS011;12205;50.600;4.608;2022-12-29T08:06:18;6.45;;;1.00;;
23990;SDS011;12205;50.600;4.608;2022-12-29T08:08:46;8.52;;;1.08;;
23990;SDS011;12205;50.600;4.608;2022-12-29T08:11:13;8.15;;;0.90;;
23990;SDS011;12205;50.600;4.608;2022-12-29T08:13:42;9.25;;;0.82;;
23990;SDS011;12205;50.600;4.608;2022-12-29T08:16:09;5.57;;;0.70;;
23990;SDS011;12205;50.600;4.608;2022-12-29T08:18:36;9.65;;;1.02;;
23990;SDS011;12205;50.600;4.608;2022-12-29T08:21:04;7.68;;;1.27;;
23990;SDS011;12205;50.600;4.608;2022-12-29T08:23:32;7.93;;;1.00;;
23990;SDS011;12205;50.600;4.608;2022-12-29T08:26:00;10.48;;;1.65;;
23990;SDS011;12205;50.600;4.608;2022-12-29T08:28:29;3.95;;;0.90;;
23990;SDS011;12205;50.600;4.608;2022-12-29T08:30:59;6.18;;;1.02;;
23990;SDS011;12205;50.600;4.608;2022-12-29T08:33:28;11.73;;;1.30;;
23990;SDS011;12205;50.600;4.608;2022-12-29T08:35:58;5.22;;;0.80;;
23990;SDS011;12205;50.600;4.608;2022-12-29T08:38:26;7.93;;;1.00;;
23990;SDS011;12205;50.600;4.608;2022-12-29T08:40:54;6.20;;;1.15;;
23990;SDS011;12205;50.600;4.608;2022-12-29T08:43:22;7.72;;;1.15;;
23990;SDS011;12205;50.600;4.608;2022-12-29T08:45:50;5.13;;;0.75;;
23990;SDS011;12205;50.600;4.608;2022-12-29T08:48:18;7.68;;;1.50;;
23990;SDS011;12205;50.600;4.608;2022-12-29T08:50:47;8.32;;;1.05;;
23990;SDS011;12205;50.600;4.608;2022-12-29T08:53:15;4.80;;;0.70;;
23990;SDS011;12205;50.600;4.608;2022-12-29T08:55:44;2.55;;;0.68;;
23990;SDS011;12205;50.600;4.608;2022-12-29T08:58:12;5.60;;;0.73;;
23990;SDS011;12205;50.600;4.608;2022-12-29T09:00:42;5.97;;;0.95;;
23990;SDS011;12205;50.600;4.608;2022-12-29T09:03:10;6.28;;;1.05;;
23990;SDS011;12205;50.600;4.608;2022-12-29T09:05:39;9.40;;;1.05;;
23990;SDS011;12205;50.600;4.608;2022-12-29T09:08:06;7.28;;;1.08;;
23990;SDS011;12205;50.600;4.608;2022-12-29T09:10:33;9.70;;;1.30;;
23990;SDS011;12205;50.600;4.608;2022-12-29T09:13:00;12.23;;;1.70;;
23990;SDS011;12205;50.600;4.608;2022-12-29T09:15:27;9.50;;;1.67;;
23990;SDS011;12205;50.600;4.608;2022-12-29T09:17:54;8.35;;;1.08;;
23990;SDS011;12205;50.600;4.608;2022-12-29T09:20:21;15.52;;;1.92;;
23990;SDS011;12205;50.600;4.608;2022-12-29T09:22:50;8.45;;;0.93;;
23990;SDS011;12205;50.600;4.608;2022-12-29T09:25:17;11.65;;;1.52;;
23990;SDS011;12205;50.600;4.608;2022-12-29T09:27:45;9.23;;;1.23;;
23990;SDS011;12205;50.600;4.608;2022-12-29T09:30:13;12.48;;;1.27;;
23990;SDS011;12205;50.600;4.608;2022-12-29T09:32:40;12.48;;;1.15;;
23990;SDS011;12205;50.600;4.608;2022-12-29T09:35:08;9.25;;;1.20;;
23990;SDS011;12205;50.600;4.608;2022-12-29T09:37:35;6.30;;;1.40;;
23990;SDS011;12205;50.600;4.608;2022-12-29T09:40:04;8.68;;;1.30;;
23990;SDS011;12205;50.600;4.608;2022-12-29T09:42:35;18.17;;;1.70;;
23990;SDS011;12205;50.600;4.608;2022-12-29T09:45:10;11.27;;;1.38;;
23990;SDS011;12205;50.600;4.608;2022-12-29T09:47:42;4.90;;;1.00;;
23990;SDS011;12205;50.600;4.608;2022-12-29T09:50:14;6.05;;;0.95;;
23990;SDS011;12205;50.600;4.608;2022-12-29T09:52:52;12.38;;;1.30;;
23990;SDS011;12205;50.600;4.608;2022-12-29T09:55:30;14.80;;;1.60;;
23990;SDS011;12205;50.600;4.608;2022-12-29T09:58:05;10.65;;;1.10;;
23990;SDS011;12205;50.600;4.608;2022-12-29T10:00:44;12.95;;;0.95;;
23990;SDS011;12205;50.600;4.608;2022-12-29T10:03:21;12.15;;;1.60;;
23990;SDS011;12205;50.600;4.608;2022-12-29T10:05:55;14.32;;;1.27;;
23990;SDS011;12205;50.600;4.608;2022-12-29T10:08:37;6.82;;;1.00;;
23990;SDS011;12205;50.600;4.608;2022-12-29T10:11:15;13.80;;;1.70;;
23990;SDS011;12205;50.600;4.608;2022-12-29T10:14:01;13.70;;;1.92;;
23990;SDS011;12205;50.600;4.608;2022-12-29T10:16:50;13.35;;;1.52;;
23990;SDS011;12205;50.600;4.608;2022-12-29T10:19:37;9.93;;;1.17;;
23990;SDS011;12205;50.600;4.608;2022-12-29T10:22:32;11.57;;;1.52;;
23990;SDS011;12205;50.600;4.608;2022-12-29T10:25:17;8.88;;;0.80;;
23990;SDS011;12205;50.600;4.608;2022-12-29T10:27:50;10.70;;;1.13;;
23990;SDS011;12205;50.600;4.608;2022-12-29T10:30:22;16.13;;;1.75;;
23990;SDS011;12205;50.600;4.608;2022-12-29T10:32:50;10.57;;;1.17;;
23990;SDS011;12205;50.600;4.608;2022-12-29T10:35:25;10.45;;;1.02;;
23990;SDS011;12205;50.600;4.608;2022-12-29T10:37:59;15.27;;;1.63;;
23990;SDS011;12205;50.600;4.608;2022-12-29T10:40:38;11.75;;;0.93;;
23990;SDS011;12205;50.600;4.608;2022-12-29T10:43:20;9.30;;;0.80;;
23990;SDS011;12205;50.600;4.608;2022-12-29T10:45:52;14.77;;;1.40;;
23990;SDS011;12205;50.600;4.608;2022-12-29T10:48:24;10.10;;;1.00;;
23990;SDS011;12205;50.600;4.608;2022-12-29T10:50:57;4.30;;;0.73;;
23990;SDS011;12205;50.600;4.608;2022-12-29T10:53:30;4.05;;;0.65;;
23990;SDS011;12205;50.600;4.608;2022-12-29T10:56:04;12.25;;;1.38;;
23990;SDS011;12205;50.600;4.608;2022-12-29T10:58:49;4.47;;;0.73;;
23990;SDS011;12205;50.600;4.608;2022-12-29T11:01:20;6.75;;;1.15;;
23990;SDS011;12205;50.600;4.608;2022-12-29T11:03:54;7.88;;;0.75;;
23990;SDS011;12205;50.600;4.608;2022-12-29T11:06:30;8.73;;;1.13;;
23990;SDS011;12205;50.600;4.608;2022-12-29T11:08:57;10.23;;;1.00;;
23990;SDS011;12205;50.600;4.608;2022-12-29T11:11:32;6.70;;;1.00;;
23990;SDS011;12205;50.600;4.608;2022-12-29T11:14:10;13.20;;;1.20;;
23990;SDS011;12205;50.600;4.608;2022-12-29T11:16:40;10.00;;;1.30;;
23990;SDS011;12205;50.600;4.608;2022-12-29T11:19:20;9.02;;;0.90;;
23990;SDS011;12205;50.600;4.608;2022-12-29T11:21:49;12.57;;;1.48;;
23990;SDS011;12205;50.600;4.608;2022-12-29T11:24:18;5.93;;;1.10;;
23990;SDS011;12205;50.600;4.608;2022-12-29T11:26:50;7.82;;;0.93;;
23990;SDS011;12205;50.600;4.608;2022-12-29T11:29:25;5.43;;;0.85;;
23990;SDS011;12205;50.600;4.608;2022-12-29T11:31:55;11.73;;;1.08;;
23990;SDS011;12205;50.600;4.608;2022-12-29T11:34:25;13.95;;;1.50;;
23990;SDS011;12205;50.600;4.608;2022-12-29T11:36:58;10.07;;;1.08;;
23990;SDS011;12205;50.600;4.608;2022-12-29T11:39:35;12.73;;;1.83;;
23990;SDS011;12205;50.600;4.608;2022-12-29T11:42:12;5.78;;;1.00;;
23990;SDS011;12205;50.600;4.608;2022-12-29T11:44:45;5.05;;;1.00;;
23990;SDS011;12205;50.600;4.608;2022-12-29T11:47:20;5.78;;;0.70;;
23990;SDS011;12205;50.600;4.608;2022-12-29T11:49:55;13.23;;;1.02;;
23990;SDS011;12205;50.600;4.608;2022-12-29T11:52:26;14.77;;;1.40;;
23990;SDS011;12205;50.600;4.608;2022-12-29T11:55:00;6.63;;;1.02;;
23990;SDS011;12205;50.600;4.608;2022-12-29T11:57:30;5.57;;;0.87;;
23990;SDS011;12205;50.600;4.608;2022-12-29T12:00:05;9.93;;;1.20;;
23990;SDS011;12205;50.600;4.608;2022-12-29T12:02:48;9.80;;;1.20;;
23990;SDS011;12205;50.600;4.608;2022-12-29T12:05:24;4.72;;;0.80;;
23990;SDS011;12205;50.600;4.608;2022-12-29T12:08:09;7.55;;;0.95;;
23990;SDS011;12205;50.600;4.608;2022-12-29T12:10:44;6.20;;;0.85;;
23990;SDS011;12205;50.600;4.608;2022-12-29T12:13:20;12.35;;;1.45;;
23990;SDS011;12205;50.600;4.608;2022-12-29T12:15:56;11.65;;;1.30;;
23990;SDS011;12205;50.600;4.608;2022-12-29T12:18:32;6.22;;;0.90;;
23990;SDS011;12205;50.600;4.608;2022-12-29T12:21:08;13.35;;;1.30;;
23990;SDS011;12205;50.600;4.608;2022-12-29T12:23:51;5.40;;;0.80;;
23990;SDS011;12205;50.600;4.608;2022-12-29T12:26:49;6.78;;;1.05;;
23990;SDS011;12205;50.600;4.608;2022-12-29T12:29:29;6.75;;;1.02;;
23990;SDS011;12205;50.600;4.608;2022-12-29T12:32:09;5.32;;;0.90;;
23990;SDS011;12205;50.600;4.608;2022-12-29T12:34:45;7.72;;;0.63;;
23990;SDS011;12205;50.600;4.608;2022-12-29T12:37:18;13.90;;;1.50;;
23990;SDS011;12205;50.600;4.608;2022-12-29T12:43:35;8.45;;;0.95;;
23990;SDS011;12205;50.600;4.608;2022-12-29T12:49:23;7.32;;;1.00;;
23990;SDS011;12205;50.600;4.608;2022-12-29T12:52:12;8.45;;;0.85;;
23990;SDS011;12205;50.600;4.608;2022-12-29T12:54:59;8.07;;;0.80;;
23990;SDS011;12205;50.600;4.608;2022-12-29T12:57:47;15.52;;;1.38;;
23990;SDS011;12205;50.600;4.608;2022-12-29T13:00:22;5.93;;;0.80;;
23990;SDS011;12205;50.600;4.608;2022-12-29T13:02:55;8.68;;;0.90;;
23990;SDS011;12205;50.600;4.608;2022-12-29T13:05:40;8.88;;;1.10;;
23990;SDS011;12205;50.600;4.608;2022-12-29T13:08:32;11.65;;;1.15;;
23990;SDS011;12205;50.600;4.608;2022-12-29T13:11:24;11.52;;;1.23;;
23990;SDS011;12205;50.600;4.608;2022-12-29T13:14:17;7.57;;;1.02;;
23990;SDS011;12205;50.600;4.608;2022-12-29T13:16:59;9.10;;;1.10;;
23990;SDS011;12205;50.600;4.608;2022-12-29T13:19:35;4.57;;;0.80;;
23990;SDS011;12205;50.600;4.608;2022-12-29T13:22:11;13.43;;;1.70;;
23990;SDS011;12205;50.600;4.608;2022-12-29T13:24:49;16.98;;;2.03;;
23990;SDS011;12205;50.600;4.608;2022-12-29T13:27:32;5.82;;;1.25;;
23990;SDS011;12205;50.600;4.608;2022-12-29T13:30:10;20.15;;;2.15;;
23990;SDS011;12205;50.600;4.608;2022-12-29T13:32:48;16.63;;;2.35;;
23990;SDS011;12205;50.600;4.608;2022-12-29T13:38:18;7.90;;;1.10;;
23990;SDS011;12205;50.600;4.608;2022-12-29T13:40:54;14.35;;;1.33;;
23990;SDS011;12205;50.600;4.608;2022-12-29T13:43:25;13.23;;;1.17;;
23990;SDS011;12205;50.600;4.608;2022-12-29T13:45:59;17.20;;;2.03;;
23990;SDS011;12205;50.600;4.608;2022-12-29T13:48:35;14.38;;;1.42;;
23990;SDS011;12205;50.600;4.608;2022-12-29T13:51:08;8.82;;;0.93;;
23990;SDS011;12205;50.600;4.608;2022-12-29T13:53:42;13.15;;;1.30;;
23990;SDS011;12205;50.600;4.608;2022-12-29T13:56:38;15.52;;;1.70;;
23990;SDS011;12205;50.600;4.608;2022-12-29T13:59:14;6.03;;;0.90;;
23990;SDS011;12205;50.600;4.608;2022-12-29T14:01:53;14.60;;;2.05;;
23990;SDS011;12205;50.600;4.608;2022-12-29T14:04:26;15.15;;;1.65;;
23990;SDS011;12205;50.600;4.608;2022-12-29T14:07:02;12.82;;;1.52;;
23990;SDS011;12205;50.600;4.608;2022-12-29T14:09:41;18.13;;;1.85;;
23990;SDS011;12205;50.600;4.608;2022-12-29T14:12:25;16.05;;;1.67;;
23990;SDS011;12205;50.600;4.608;2022-12-29T14:15:03;7.22;;;1.02;;
23990;SDS011;12205;50.600;4.608;2022-12-29T14:17:44;8.40;;;1.20;;
23990;SDS011;12205;50.600;4.608;2022-12-29T14:20:29;8.95;;;1.25;;
23990;SDS011;12205;50.600;4.608;2022-12-29T14:22:58;11.90;;;1.42;;
23990;SDS011;12205;50.600;4.608;2022-12-29T14:28:43;11.93;;;1.30;;
23990;SDS011;12205;50.600;4.608;2022-12-29T14:36:57;9.02;;;1.20;;
23990;SDS011;12205;50.600;4.608;2022-12-29T14:39:31;13.32;;;1.55;;
23990;SDS011;12205;50.600;4.608;2022-12-29T14:42:05;13.98;;;1.42;;
23990;SDS011;12205;50.600;4.608;2022-12-29T14:44:45;15.93;;;1.70;;
23990;SDS011;12205;50.600;4.608;2022-12-29T14:47:16;20.77;;;2.22;;
23990;SDS011;12205;50.600;4.608;2022-12-29T14:49:48;10.23;;;1.15;;
23990;SDS011;12205;50.600;4.608;2022-12-29T14:52:17;10.70;;;1.30;;
23990;SDS011;12205;50.600;4.608;2022-12-29T14:54:50;16.23;;;2.38;;
23990;SDS011;12205;50.600;4.608;2022-12-29T14:57:26;17.17;;;1.83;;
23990;SDS011;12205;50.600;4.608;2022-12-29T15:00:03;14.95;;;1.70;;
23990;SDS011;12205;50.600;4.608;2022-12-29T15:02:42;14.07;;;1.13;;
23990;SDS011;12205;50.600;4.608;2022-12-29T15:05:27;17.67;;;1.63;;
23990;SDS011;12205;50.600;4.608;2022-12-29T15:08:01;11.40;;;1.33;;
23990;SDS011;12205;50.600;4.608;2022-12-29T15:10:39;24.63;;;2.60;;
23990;SDS011;12205;50.600;4.608;2022-12-29T15:13:16;19.05;;;2.58;;
23990;SDS011;12205;50.600;4.608;2022-12-29T15:15:50;9.80;;;1.63;;
23990;SDS011;12205;50.600;4.608;2022-12-29T15:18:22;6.78;;;1.08;;
23990;SDS011;12205;50.600;4.608;2022-12-29T15:20:53;9.55;;;1.60;;
23990;SDS011;12205;50.600;4.608;2022-12-29T15:23:23;9.05;;;1.23;;
23990;SDS011;12205;50.600;4.608;2022-12-29T15:25:53;17.95;;;1.95;;
23990;SDS011;12205;50.600;4.608;2022-12-29T15:28:24;10.38;;;1.48;;
23990;SDS011;12205;50.600;4.608;2022-12-29T15:30:53;16.23;;;1.92;;
23990;SDS011;12205;50.600;4.608;2022-12-29T15:33:23;18.42;;;2.10;;
23990;SDS011;12205;50.600;4.608;2022-12-29T15:35:56;28.95;;;3.13;;
23990;SDS011;12205;50.600;4.608;2022-12-29T15:38:29;7.18;;;1.10;;
23990;SDS011;12205;50.600;4.608;2022-12-29T15:40:57;14.73;;;1.95;;
23990;SDS011;12205;50.600;4.608;2022-12-29T15:43:38;11.52;;;1.58;;
23990;SDS011;12205;50.600;4.608;2022-12-29T15:46:22;13.23;;;1.80;;